Time;durP1;ratioP1;P1;durP2;ratioP2;P2;SDS_P1;SDS_P2;PMS_P1;PMS_P2;Temp;Humidity;BMP_temperature;BMP_pressure;BME280_temperature;BME280_humidity;BME280_pressure;Samples;Min_cycle;Max_cycle;Signal;HPM_P1;HPM_P2
2023/01/23 00:01:45;;;;;;;;;45.25;36.00;;;;;3.13;67.32;102952.19;5077642;28;45977;-52
2023/01/23 00:04:12;;;;;;;;;53.75;36.00;;;;;3.14;67.20;102950.41;5077564;28;45404;-53
2023/01/23 00:06:39;;;;;;;;;57.00;41.00;;;;;3.14;68.09;102950.41;5077801;28;45396;-49
2023/01/23 00:09:05;;;;;;;;;51.50;38.75;;;;;3.14;67.34;102951.25;5077960;28;45400;-55
2023/01/23 00:11:30;;;;;;;;;47.25;36.25;;;;;3.13;67.95;102949.56;5076757;28;46324;-54
2023/01/23 00:13:56;;;;;;;;;43.00;26.00;;;;;3.14;68.02;102946.00;5077839;28;45269;-51
2023/01/23 00:16:24;;;;;;;;;58.75;38.75;;;;;3.11;67.88;102948.72;5076701;28;45408;-49
2023/01/23 00:18:50;;;;;;;;;40.00;32.50;;;;;3.04;67.32;102933.19;5076612;28;45520;-55
2023/01/23 00:21:19;;;;;;;;;45.00;36.00;;;;;3.13;68.12;102949.56;5077215;28;46266;-50
2023/01/23 00:23:48;;;;;;;;;51.50;40.75;;;;;3.12;68.03;102950.47;5077391;28;45369;-51
2023/01/23 00:26:16;;;;;;;;;38.25;29.50;;;;;3.12;67.85;102949.56;5076898;28;45297;-55
2023/01/23 00:28:42;;;;;;;;;48.75;36.75;;;;;3.00;67.52;102927.16;5077513;28;45301;-55
2023/01/23 00:31:11;;;;;;;;;66.00;45.25;;;;;3.06;67.38;102934.00;5077089;28;45568;-55
2023/01/23 00:33:37;;;;;;;;;53.00;42.75;;;;;3.13;68.09;102939.03;5077437;28;45470;-50
2023/01/23 00:36:03;;;;;;;;;37.00;25.75;;;;;3.12;67.33;102947.84;5077372;28;45375;-54
2023/01/23 00:38:28;;;;;;;;;45.25;34.75;;;;;3.11;67.80;102947.84;5059226;28;45547;-55
2023/01/23 00:40:55;;;;;;;;;44.00;36.25;;;;;3.09;67.24;102952.31;5076979;28;46939;-54
2023/01/23 00:43:22;;;;;;;;;54.25;36.50;;;;;3.08;67.52;102954.09;5077233;28;45355;-55
2023/01/23 00:45:47;;;;;;;;;45.50;35.25;;;;;3.07;68.13;102951.47;5077275;28;45446;-54
2023/01/23 00:48:13;;;;;;;;;48.50;37.00;;;;;3.11;67.66;102955.75;5077505;28;45388;-55
2023/01/23 00:50:38;;;;;;;;;47.75;35.50;;;;;3.08;68.25;102951.47;5076511;28;51013;-50
2023/01/23 00:53:03;;;;;;;;;52.00;40.00;;;;;3.07;67.42;102948.84;5076864;28;45429;-56
2023/01/23 00:55:29;;;;;;;;;45.75;33.75;;;;;3.03;68.43;102953.34;5077220;28;45487;-56
2023/01/23 00:57:54;;;;;;;;;51.25;30.75;;;;;3.04;67.20;102955.09;5077349;28;45312;-56
2023/01/23 01:00:19;;;;;;;;;56.75;35.75;;;;;3.04;68.16;102951.59;5076789;28;46015;-55
2023/01/23 01:02:45;;;;;;;;;55.25;42.25;;;;;3.05;67.90;102948.91;5076715;28;45316;-54
2023/01/23 01:05:10;;;;;;;;;44.50;35.25;;;;;3.04;67.82;102951.59;5076980;28;45405;-52
2023/01/23 01:07:36;;;;;;;;;50.25;30.75;;;;;2.97;67.90;102938.59;5076929;28;45300;-48
2023/01/23 01:10:01;;;;;;;;;40.50;33.50;;;;;3.03;68.04;102953.34;5076695;28;45412;-54
2023/01/23 01:12:26;;;;;;;;;33.25;24.00;;;;;3.02;68.02;102956.88;5076659;28;45328;-51
2023/01/23 01:14:52;;;;;;;;;57.00;38.50;;;;;2.99;67.46;102944.69;5076819;28;45450;-49
2023/01/23 01:17:17;;;;;;;;;34.50;29.25;;;;;3.03;68.26;102952.47;5076817;28;45336;-50
2023/01/23 01:19:42;;;;;;;;;38.50;32.75;;;;;2.98;68.19;102944.72;5076332;28;45461;-52
2023/01/23 01:22:08;;;;;;;;;47.00;39.25;;;;;2.99;68.36;102941.19;5075381;28;45808;-50
2023/01/23 01:24:33;;;;;;;;;48.25;40.00;;;;;2.99;67.88;102949.97;5076455;28;45741;-52
2023/01/23 01:26:58;;;;;;;;;43.25;36.00;;;;;2.98;68.49;102944.72;5076796;28;45357;-56
2023/01/23 01:29:24;;;;;;;;;49.75;37.75;;;;;2.97;67.83;102941.25;5076214;28;46560;-44
2023/01/23 01:31:49;;;;;;;;;60.50;41.00;;;;;2.96;68.56;102946.56;5075889;28;51330;-47
2023/01/23 01:34:14;;;;;;;;;53.00;38.25;;;;;2.96;68.46;102946.56;5076261;28;45360;-55
2023/01/23 01:36:40;;;;;;;;;55.25;41.75;;;;;2.96;68.42;102938.66;5076307;28;45373;-53
2023/01/23 01:39:05;;;;;;;;;59.50;39.50;;;;;2.96;68.66;102936.03;5075835;28;52339;-55
2023/01/23 01:41:30;;;;;;;;;44.25;30.00;;;;;2.96;68.24;102938.66;5076181;28;45301;-55
2023/01/23 01:43:56;;;;;;;;;58.25;39.75;;;;;2.95;69.00;102932.53;5076403;28;45388;-48
2023/01/23 01:46:26;;;;;;;;;45.50;33.00;;;;;2.95;68.87;102935.19;5076334;28;45523;-51
2023/01/23 01:49:04;;;;;;;;;58.00;37.00;;;;;2.95;68.56;102939.53;5076086;28;45416;-52
2023/01/23 01:51:44;;;;;;;;;40.00;28.75;;;;;2.94;69.04;102927.31;5076266;28;45404;-45
2023/01/23 01:54:23;;;;;;;;;45.00;35.25;;;;;2.95;69.17;102931.66;5076022;28;45368;-50
2023/01/23 01:57:10;;;;;;;;;43.75;37.00;;;;;2.95;68.73;102929.03;5076259;28;45412;-43
2023/01/23 01:59:42;;;;;;;;;45.00;30.75;;;;;2.96;68.22;102936.88;5075970;28;45453;-49
2023/01/23 02:02:22;;;;;;;;;51.25;35.50;;;;;2.90;68.18;102916.00;5075841;28;45191;-53
2023/01/23 02:04:52;;;;;;;;;52.50;36.75;;;;;2.96;67.97;102928.16;5076283;28;45412;-53
2023/01/23 02:07:26;;;;;;;;;48.25;37.50;;;;;2.91;68.38;102927.41;5076163;28;45400;-53
2023/01/23 02:09:53;;;;;;;;;27.00;16.00;;;;;2.90;69.03;102920.41;5075948;28;45352;-51
2023/01/23 02:12:18;;;;;;;;;43.25;35.50;;;;;2.83;68.83;102919.75;5075662;28;45402;-56
2023/01/23 02:14:44;;;;;;;;;49.25;34.50;;;;;2.87;68.41;102925.78;5075841;28;45459;-55
2023/01/23 02:17:09;;;;;;;;;49.75;35.00;;;;;2.86;68.84;102927.53;5076117;28;45688;-53
2023/01/23 02:20:02;;;;;;;;;63.00;38.75;;;;;2.87;68.36;102925.78;5075639;28;46054;-54
2023/01/23 02:22:31;;;;;;;;;49.75;36.50;;;;;2.88;68.90;102920.47;5075633;28;45259;-51
2023/01/23 02:25:09;;;;;;;;;46.75;40.50;;;;;2.89;68.47;102924.81;5075896;28;45421;-55
2023/01/23 02:27:35;;;;;;;;;45.50;33.25;;;;;2.89;68.96;102929.22;5076126;28;45443;-49
2023/01/23 02:30:00;;;;;;;;;55.75;31.00;;;;;2.83;69.00;102914.50;5075408;28;46920;-46
2023/01/23 02:32:26;;;;;;;;;50.25;30.50;;;;;2.86;68.35;102921.41;5075510;28;45368;-52
2023/01/23 02:34:56;;;;;;;;;38.75;33.50;;;;;2.91;68.87;102927.41;5078348;28;45396;-49
2023/01/23 02:37:28;;;;;;;;;43.75;32.50;;;;;2.89;69.06;102919.56;5078483;28;45471;-49
2023/01/23 02:39:53;;;;;;;;;50.50;39.00;;;;;2.91;68.75;102922.16;5078959;28;46150;-44
2023/01/23 02:42:21;;;;;;;;;46.75;37.75;;;;;2.90;68.94;102923.91;5079130;28;45432;-53
2023/01/23 02:44:46;;;;;;;;;53.00;35.50;;;;;2.93;68.54;102925.59;5079074;28;45336;-45
2023/01/23 02:47:11;;;;;;;;;53.50;41.00;;;;;2.95;69.00;102926.41;5079109;28;45364;-55
2023/01/23 02:49:41;;;;;;;;;56.25;38.50;;;;;2.97;69.03;102943.00;5060649;28;45367;-54
2023/01/23 02:52:08;;;;;;;;;46.25;37.00;;;;;2.92;68.82;102932.63;5078817;28;45537;-44
2023/01/23 02:54:33;;;;;;;;;51.50;42.25;;;;;2.90;69.05;102939.69;5079112;28;44766;-43
2023/01/23 02:56:59;;;;;;;;;41.50;37.00;;;;;2.91;68.97;102949.31;5079269;28;45361;-45
2023/01/23 03:02:22;;;;;;;;;50.00;36.25;;;;;2.94;68.82;102957.09;4996211;28;45525;-54
2023/01/23 03:04:47;;;;;;;;;43.50;36.25;;;;;2.93;69.27;102944.84;4996546;28;45727;-56
2023/01/23 03:07:12;;;;;;;;;50.25;37.50;;;;;2.94;69.19;102949.19;4996489;28;45550;-56
2023/01/23 03:09:38;;;;;;;;;46.00;38.00;;;;;2.93;69.52;102939.59;4995916;28;46766;-55
2023/01/23 03:12:04;;;;;;;;;36.50;31.00;;;;;2.66;69.37;102901.81;4996191;28;45453;-52
2023/01/23 03:14:31;;;;;;;;;59.50;41.50;;;;;2.96;69.10;102944.78;4996302;28;45405;-58
2023/01/23 03:16:57;;;;;;;;;52.25;39.00;;;;;2.97;68.82;102943.88;4996261;28;45489;-53
2023/01/23 03:19:25;;;;;;;;;47.50;35.75;;;;;2.95;69.30;102935.19;4995758;28;47056;-55
2023/01/23 03:21:51;;;;;;;;;64.25;38.75;;;;;2.96;69.81;102939.53;4996043;28;45434;-54
2023/01/23 03:24:18;;;;;;;;;46.00;33.50;;;;;2.95;68.77;102934.28;4996262;28;45461;-56
2023/01/23 03:26:46;;;;;;;;;58.75;39.00;;;;;2.96;69.74;102936.03;4996240;28;45510;-53
2023/01/23 03:32:05;;;;;;;;;53.50;41.75;;;;;3.02;69.17;102935.84;4995582;28;45434;-52
2023/01/23 03:34:31;;;;;;;;;44.00;37.75;;;;;2.99;69.43;102946.44;4996036;28;45466;-54
2023/01/23 03:36:57;;;;;;;;;61.50;36.50;;;;;3.00;69.92;102948.19;5002717;28;45399;-53
2023/01/23 03:42:06;;;;;;;;;51.50;37.00;;;;;3.01;69.20;102947.28;5078302;28;45367;-56
2023/01/23 03:44:31;;;;;;;;;57.75;39.00;;;;;2.89;69.06;102922.19;5077937;28;45397;-55
2023/01/23 03:46:56;;;;;;;;;42.25;37.00;;;;;3.02;68.96;102945.50;5076451;28;45579;-54
2023/01/23 03:49:22;;;;;;;;;34.75;29.75;;;;;3.05;68.91;102945.41;5077965;28;45346;-55
2023/01/23 03:51:47;;;;;;;;;40.50;22.50;;;;;3.04;69.53;102935.81;5059836;28;45314;-52
2023/01/23 03:54:13;;;;;;;;;51.50;36.25;;;;;3.07;69.68;102952.34;5078215;28;45277;-53
2023/01/23 03:56:41;;;;;;;;;50.50;29.50;;;;;3.07;69.67;102947.09;5078211;28;45810;-55
2023/01/23 03:59:06;;;;;;;;;46.00;33.75;;;;;3.09;69.20;102947.06;5077734;28;45504;-55
2023/01/23 04:01:31;;;;;;;;;52.50;38.50;;;;;3.02;69.65;102927.94;5077655;28;45217;-54
2023/01/23 04:03:57;;;;;;;;;52.25;37.75;;;;;3.06;69.51;102932.22;5077775;28;45491;-49
2023/01/23 04:06:22;;;;;;;;;48.75;34.25;;;;;3.11;69.37;102942.59;5077829;28;45373;-50
2023/01/23 04:08:48;;;;;;;;;47.25;36.00;;;;;3.08;69.15;102940.94;5077523;28;46201;-52
2023/01/23 04:11:13;;;;;;;;;34.25;27.75;;;;;3.07;68.95;102933.94;5077543;28;45409;-54
2023/01/23 04:13:38;;;;;;;;;49.25;33.75;;;;;3.04;69.68;102926.16;5077715;28;45393;-52
2023/01/23 04:16:05;;;;;;;;;45.25;31.25;;;;;3.07;69.84;102931.31;5077609;28;45405;-54
2023/01/23 04:18:31;;;;;;;;;41.00;26.50;;;;;3.05;69.69;102933.13;5077775;28;46640;-52
2023/01/23 04:20:56;;;;;;;;;47.00;32.25;;;;;3.04;69.64;102928.78;5077675;28;45370;-48
2023/01/23 04:23:22;;;;;;;;;49.25;28.75;;;;;3.07;69.85;102947.09;5077422;28;45553;-55
2023/01/23 04:25:47;;;;;;;;;43.00;32.25;;;;;3.03;68.91;102942.81;5077694;28;45418;-55
2023/01/23 04:28:13;;;;;;;;;56.75;37.25;;;;;3.05;68.98;102948.91;5077212;28;47046;-51
2023/01/23 04:30:39;;;;;;;;;52.00;40.00;;;;;3.04;69.80;102949.81;5077159;28;45321;-55
2023/01/23 04:33:04;;;;;;;;;56.00;38.75;;;;;3.04;68.97;102954.22;5077316;28;45459;-55
2023/01/23 04:35:29;;;;;;;;;38.25;28.00;;;;;3.00;69.23;102945.56;5077583;28;45464;-54
2023/01/23 04:37:55;;;;;;;;;47.25;30.00;;;;;3.05;69.21;102959.44;5077027;28;45556;-54
2023/01/23 04:40:20;;;;;;;;;42.50;36.25;;;;;3.04;69.32;102957.72;5077093;28;45724;-51
2023/01/23 04:42:45;;;;;;;;;48.25;32.00;;;;;3.08;69.59;102951.47;5077326;28;45376;-55
2023/01/23 04:45:11;;;;;;;;;45.75;34.25;;;;;3.07;69.21;102946.22;5076581;28;45642;-56
2023/01/23 04:47:36;;;;;;;;;46.25;33.25;;;;;3.11;69.47;102953.13;5076864;28;47141;-55
2023/01/23 04:50:03;;;;;;;;;56.00;43.25;;;;;3.11;69.62;102961.88;5076912;28;45363;-50
2023/01/23 04:52:28;;;;;;;;;45.25;38.75;;;;;3.12;69.53;102961.00;5077203;28;45748;-55
2023/01/23 04:54:53;;;;;;;;;61.50;40.25;;;;;3.14;69.93;102958.28;5077152;28;45499;-55
2023/01/23 04:57:19;;;;;;;;;45.25;34.00;;;;;3.15;69.34;102958.25;5076508;28;46181;-53
2023/01/23 04:59:44;;;;;;;;;64.75;42.00;;;;;3.15;69.77;102952.13;5076970;28;45417;-53
2023/01/23 05:02:09;;;;;;;;;52.25;37.50;;;;;3.11;69.73;102946.09;5076939;28;45435;-51
2023/01/23 05:04:35;;;;;;;;;43.00;30.00;;;;;3.14;69.53;102953.91;5076951;28;45486;-51
2023/01/23 05:07:01;;;;;;;;;48.50;37.50;;;;;3.08;70.10;102946.19;5076760;28;46534;-51
2023/01/23 05:09:27;;;;;;;;;45.50;28.50;;;;;3.18;69.60;102963.41;5077084;28;45432;-53
2023/01/23 05:11:52;;;;;;;;;49.50;32.25;;;;;3.18;69.72;102966.06;5076858;28;45401;-56
2023/01/23 05:14:17;;;;;;;;;51.50;40.25;;;;;3.18;69.16;102965.19;5076927;28;45262;-52
2023/01/23 05:16:43;;;;;;;;;51.50;36.25;;;;;3.19;69.84;102974.81;5076538;28;46852;-53
2023/01/23 05:19:08;;;;;;;;;42.50;33.00;;;;;3.19;69.43;102959.88;5076539;28;45308;-53
2023/01/23 05:21:33;;;;;;;;;51.50;29.00;;;;;3.13;69.79;102952.19;5076867;28;45246;-48
2023/01/23 05:23:59;;;;;;;;;56.75;39.50;;;;;3.17;68.99;102974.84;5077052;28;45316;-55
2023/01/23 05:26:24;;;;;;;;;52.25;29.25;;;;;3.19;69.45;102966.91;5076399;28;46189;-51
2023/01/23 05:28:49;;;;;;;;;57.50;40.75;;;;;3.19;70.29;102967.78;5076456;28;45400;-55
2023/01/23 05:31:15;;;;;;;;;50.00;36.00;;;;;3.20;69.54;102969.53;5076583;28;45754;-55
2023/01/23 05:33:40;;;;;;;;;60.00;39.75;;;;;3.17;69.42;102977.50;5076383;28;45297;-50
2023/01/23 05:36:06;;;;;;;;;48.75;36.75;;;;;3.15;69.93;102981.06;5076086;28;45553;-55
2023/01/23 05:38:31;;;;;;;;;37.75;30.75;;;;;3.14;70.18;102982.81;5076051;28;45241;-50
2023/01/23 05:40:56;;;;;;;;;42.25;30.00;;;;;3.12;69.56;102979.41;5076537;28;45366;-55
2023/01/23 05:43:22;;;;;;;;;57.25;37.75;;;;;3.11;69.36;102977.66;5076802;28;45416;-56
2023/01/23 05:45:47;;;;;;;;;46.25;38.00;;;;;3.08;69.95;102987.41;5075887;28;45811;-55
2023/01/23 05:48:13;;;;;;;;;63.50;40.25;;;;;3.07;70.08;102983.03;5076227;28;45343;-55
2023/01/23 05:50:39;;;;;;;;;42.25;31.00;;;;;2.98;69.82;102966.63;5058124;28;45456;-55
2023/01/23 05:53:04;;;;;;;;;49.50;33.75;;;;;3.08;69.64;102992.69;5076481;28;45753;-52
2023/01/23 05:55:29;;;;;;;;;39.00;36.75;;;;;3.08;69.50;102984.78;5075941;28;45360;-56
2023/01/23 05:57:55;;;;;;;;;34.25;23.25;;;;;3.08;70.46;102982.16;5075826;28;45399;-55
2023/01/23 06:00:20;;;;;;;;;50.00;33.75;;;;;3.04;70.55;102981.38;5076164;28;45392;-53
2023/01/23 06:02:46;;;;;;;;;42.25;36.25;;;;;3.11;69.59;102987.31;5076124;28;45416;-53
2023/01/23 06:05:11;;;;;;;;;52.50;35.75;;;;;3.03;69.98;102979.63;5075607;28;47017;-55
2023/01/23 06:07:37;;;;;;;;;41.75;33.00;;;;;3.12;70.40;102996.91;5057686;28;45523;-55
2023/01/23 06:10:03;;;;;;;;;37.50;31.00;;;;;3.10;70.46;102994.34;5077722;28;45804;-50
2023/01/23 06:12:28;;;;;;;;;33.50;26.50;;;;;2.68;69.94;102934.16;5079693;28;45213;-54
2023/01/23 06:14:54;;;;;;;;;43.50;35.75;;;;;3.04;69.47;102998.94;5079261;28;46060;-53
2023/01/23 06:17:19;;;;;;;;;46.25;31.50;;;;;3.08;69.67;103011.94;5079075;28;45420;-55
2023/01/23 06:19:44;;;;;;;;;38.25;28.50;;;;;3.07;70.23;103007.56;5079380;28;45551;-51
2023/01/23 06:22:10;;;;;;;;;42.25;30.50;;;;;3.10;70.03;103017.16;5079699;28;45251;-53
2023/01/23 06:24:35;;;;;;;;;43.50;28.00;;;;;3.05;69.42;103011.16;5079025;28;47537;-54
2023/01/23 06:27:03;;;;;;;;;42.25;36.50;;;;;3.10;69.99;103019.78;5079360;28;45341;-49
2023/01/23 06:29:28;;;;;;;;;52.50;33.00;;;;;3.10;69.66;103017.16;5079307;28;45715;-55
2023/01/23 06:31:53;;;;;;;;;49.00;39.50;;;;;3.09;69.53;103016.28;5061114;28;45507;-55
2023/01/23 06:34:18;;;;;;;;;48.75;37.25;;;;;3.11;69.65;103021.50;5079091;28;45360;-51
2023/01/23 06:36:45;;;;;;;;;45.00;27.00;;;;;3.12;70.13;103021.47;5078861;28;45986;-52
2023/01/23 06:39:12;;;;;;;;;25.75;19.00;;;;;3.08;69.16;103004.06;5079216;28;45317;-55
2023/01/23 06:41:37;;;;;;;;;37.50;27.75;;;;;3.14;69.02;103016.16;5079003;28;45469;-53
2023/01/23 06:44:03;;;;;;;;;40.50;33.00;;;;;3.14;68.87;103019.66;5079083;28;45334;-55
2023/01/23 06:46:28;;;;;;;;;38.75;28.50;;;;;3.12;69.57;103012.69;5079072;28;45329;-51
2023/01/23 06:48:54;;;;;;;;;37.00;22.25;;;;;3.17;69.43;103024.81;5078861;28;45452;-45
2023/01/23 06:51:19;;;;;;;;;40.00;25.00;;;;;3.18;68.54;103023.91;5078955;28;45427;-55
2023/01/23 06:53:44;;;;;;;;;26.75;20.75;;;;;3.16;69.43;103009.06;5078513;28;45307;-52
2023/01/23 06:56:11;;;;;;;;;43.75;33.50;;;;;3.18;69.95;103016.03;5078904;28;45289;-46
2023/01/23 06:58:39;;;;;;;;;40.00;27.75;;;;;3.19;69.27;103012.47;5078900;28;45310;-55
2023/01/23 07:01:09;;;;;;;;;44.00;32.75;;;;;3.18;69.35;103016.03;5079031;28;45475;-48
2023/01/23 07:03:34;;;;;;;;;36.75;27.25;;;;;3.19;69.13;103016.88;5078648;28;47119;-54
2023/01/23 07:06:05;;;;;;;;;51.50;32.25;;;;;3.18;69.58;103010.75;5078464;28;45324;-44
2023/01/23 07:08:32;;;;;;;;;39.50;28.50;;;;;3.16;69.35;103012.59;5078777;28;45413;-53
2023/01/23 07:10:58;;;;;;;;;28.50;21.75;;;;;3.15;69.10;103020.50;5079010;28;45368;-53
2023/01/23 07:13:24;;;;;;;;;38.25;25.75;;;;;3.13;68.88;103015.31;5078551;28;45348;-54
2023/01/23 07:15:49;;;;;;;;;42.75;33.50;;;;;3.11;69.82;103014.47;5078585;28;45371;-57
2023/01/23 07:18:14;;;;;;;;;35.75;32.00;;;;;3.11;69.80;103009.19;5078579;28;45521;-52
2023/01/23 07:20:43;;;;;;;;;41.00;32.25;;;;;3.15;69.95;103015.25;5078712;28;45293;-55
2023/01/23 07:23:09;;;;;;;;;45.00;29.75;;;;;3.16;69.60;103011.69;5078292;28;45414;-51
2023/01/23 07:25:34;;;;;;;;;38.25;29.75;;;;;3.15;69.76;103013.47;5078493;28;45442;-55
2023/01/23 07:27:59;;;;;;;;;36.50;29.75;;;;;3.14;69.04;103019.66;5078743;28;45380;-51
2023/01/23 07:30:25;;;;;;;;;41.75;31.00;;;;;3.15;69.35;103023.13;5078626;28;45373;-55
2023/01/23 07:32:50;;;;;;;;;56.25;36.25;;;;;3.16;69.27;103028.38;5078261;28;46197;-54
2023/01/23 07:35:16;;;;;;;;;42.75;31.25;;;;;3.16;69.10;103016.97;5078098;28;45317;-55
2023/01/23 07:37:41;;;;;;;;;46.50;34.25;;;;;3.15;68.90;103031.03;5076914;28;45424;-53
2023/01/23 07:40:07;;;;;;;;;49.00;34.75;;;;;3.14;69.24;103040.69;5077805;28;45261;-56
2023/01/23 07:42:33;;;;;;;;;47.25;28.75;;;;;3.00;69.45;103009.53;5078185;28;46292;-55
2023/01/23 07:44:58;;;;;;;;;40.50;34.25;;;;;3.14;69.95;103030.16;5078178;28;45288;-54
2023/01/23 07:47:23;;;;;;;;;38.75;28.50;;;;;3.15;69.18;103036.28;5078321;28;45405;-56
2023/01/23 07:49:48;;;;;;;;;44.00;35.25;;;;;3.13;69.58;103028.44;5078062;28;45678;-56
2023/01/23 07:52:14;;;;;;;;;43.00;35.50;;;;;3.16;69.23;103033.63;5078020;28;47201;-53
2023/01/23 07:54:39;;;;;;;;;38.00;25.50;;;;;3.12;69.02;103025.84;5077958;28;45320;-57
2023/01/23 07:57:05;;;;;;;;;55.75;42.00;;;;;3.19;68.73;103036.16;5078004;28;45368;-55
2023/01/23 07:59:30;;;;;;;;;42.25;27.75;;;;;3.20;69.02;103040.53;5078357;28;45417;-56
2023/01/23 08:01:56;;;;;;;;;49.00;30.00;;;;;3.21;69.02;103037.00;5077187;28;46524;-56
2023/01/23 08:04:21;;;;;;;;;60.25;33.00;;;;;3.23;69.30;103037.78;5077799;28;45353;-56
2023/01/23 08:06:46;;;;;;;;;42.00;32.50;;;;;3.23;69.75;103037.78;5077812;28;45222;-56
2023/01/23 08:09:12;;;;;;;;;38.00;31.00;;;;;3.28;68.93;103034.16;5078215;28;45241;-56
2023/01/23 08:11:38;;;;;;;;;34.50;28.75;;;;;3.29;68.94;103039.41;5077484;28;46204;-52
2023/01/23 08:14:03;;;;;;;;;38.50;32.50;;;;;3.31;69.66;103024.44;5077648;28;45304;-55
2023/01/23 08:16:28;;;;;;;;;45.50;27.50;;;;;3.28;69.23;103015.75;5078098;28;45606;-55
2023/01/23 08:18:54;;;;;;;;;53.00;38.75;;;;;3.35;69.36;103036.59;5077885;28;45392;-56
2023/01/23 08:21:19;;;;;;;;;50.00;35.00;;;;;3.26;69.12;103013.19;5077308;28;45376;-53
2023/01/23 08:23:45;;;;;;;;;38.00;33.50;;;;;3.39;68.84;103034.75;5077418;28;45399;-52
2023/01/23 08:26:13;;;;;;;;;44.50;30.75;;;;;3.40;69.21;103026.78;5077634;28;45473;-55
2023/01/23 08:28:39;;;;;;;;;50.00;33.50;;;;;3.45;69.20;103038.03;5077904;28;45381;-53
2023/01/23 08:31:07;;;;;;;;;41.25;33.75;;;;;3.48;68.40;103034.47;5076614;28;47253;-51
2023/01/23 08:33:33;;;;;;;;;47.00;34.00;;;;;3.49;68.95;103036.19;5077353;28;45455;-52
2023/01/23 08:35:59;;;;;;;;;36.25;29.00;;;;;3.53;68.39;103037.81;5077344;28;45459;-53
2023/01/23 08:38:26;;;;;;;;;46.50;34.00;;;;;3.55;69.36;103037.78;5077165;28;45494;-52
2023/01/23 08:40:54;;;;;;;;;37.50;33.50;;;;;3.57;68.70;103033.34;5077024;28;47433;-55
2023/01/23 08:43:20;;;;;;;;;44.50;35.75;;;;;3.59;67.96;103037.66;5077178;28;45397;-54
2023/01/23 08:45:51;;;;;;;;;41.50;27.00;;;;;3.63;68.52;103043.69;5077161;28;45666;-54
2023/01/23 08:48:16;;;;;;;;;39.75;33.75;;;;;3.63;68.26;103049.81;5077343;28;45431;-54
2023/01/23 08:50:41;;;;;;;;;51.75;34.50;;;;;3.61;68.39;103033.19;5076834;28;45468;-51
2023/01/23 08:53:07;;;;;;;;;52.00;30.75;;;;;3.61;67.62;103033.19;5077097;28;45381;-55
2023/01/23 08:55:34;;;;;;;;;42.75;29.00;;;;;3.56;68.40;103021.09;5077182;28;45390;-53
2023/01/23 08:58:00;;;;;;;;;46.75;33.50;;;;;3.68;68.49;103029.47;5077160;28;45193;-57
2023/01/23 09:00:26;;;;;;;;;46.00;35.25;;;;;3.71;68.68;103025.91;5076832;28;47528;-52
2023/01/23 09:02:51;;;;;;;;;47.50;38.75;;;;;3.75;68.58;103019.63;5076754;28;45259;-52
2023/01/23 09:05:17;;;;;;;;;35.25;32.25;;;;;3.80;68.41;103019.50;5076659;28;45468;-54
2023/01/23 09:07:42;;;;;;;;;41.75;32.50;;;;;3.86;68.51;103032.47;5077290;28;45297;-53
2023/01/23 09:10:09;;;;;;;;;79.00;50.25;;;;;3.84;67.54;103015.84;5076314;28;46067;-53
2023/01/23 09:12:34;;;;;;;;;50.25;38.50;;;;;3.92;68.30;103019.97;5076549;28;45482;-51
2023/01/23 09:15:00;;;;;;;;;52.25;33.50;;;;;3.95;67.48;103019.00;5076951;28;45415;-52
2023/01/23 09:17:25;;;;;;;;;47.75;37.25;;;;;4.00;67.21;103019.72;5076109;28;45260;-53
2023/01/23 09:19:52;;;;;;;;;43.00;31.25;;;;;3.95;67.35;103014.59;5076258;28;46287;-53
2023/01/23 09:22:17;;;;;;;;;48.50;34.75;;;;;4.10;67.15;103025.56;5076803;28;45364;-52
2023/01/23 09:24:42;;;;;;;;;57.25;33.25;;;;;4.12;66.90;103043.03;5076913;28;45479;-54
2023/01/23 09:27:08;;;;;;;;;48.75;36.00;;;;;4.17;66.46;103041.13;5058358;28;45403;-55
2023/01/23 09:29:34;;;;;;;;;44.25;33.00;;;;;4.21;67.26;103042.75;5076486;28;45918;-47
2023/01/23 09:32:00;;;;;;;;;43.75;32.00;;;;;4.22;67.32;103046.25;5076285;28;45620;-55
2023/01/23 09:34:26;;;;;;;;;40.50;33.50;;;;;4.20;66.48;103046.28;5076257;28;45523;-53
2023/01/23 09:36:51;;;;;;;;;40.00;30.00;;;;;4.23;66.32;103054.09;5076538;28;45293;-53
2023/01/23 09:39:17;;;;;;;;;43.50;33.00;;;;;4.27;66.96;103061.91;5076062;28;46888;-47
2023/01/23 09:41:44;;;;;;;;;53.00;33.50;;;;;4.24;66.46;103063.72;5076062;28;45316;-52
2023/01/23 09:44:18;;;;;;;;;45.25;28.50;;;;;4.24;65.96;103062.84;5075211;28;45344;-55
2023/01/23 09:46:51;;;;;;;;;40.25;31.25;;;;;4.21;66.72;103071.75;5076384;28;45370;-56
2023/01/23 09:49:26;;;;;;;;;37.00;26.75;;;;;4.20;65.92;103080.53;5076096;28;46153;-53
2023/01/23 09:51:59;;;;;;;;;48.00;37.25;;;;;4.22;66.79;103080.50;5075688;28;45175;-56
2023/01/23 09:54:46;;;;;;;;;41.25;32.00;;;;;4.21;66.46;103076.13;5076036;28;45348;-51
2023/01/23 09:57:27;;;;;;;;;45.25;31.50;;;;;4.17;66.81;103085.03;5076437;28;45360;-49
2023/01/23 10:00:03;;;;;;;;;45.50;33.00;;;;;4.15;65.94;103084.22;5075959;28;46407;-48
2023/01/23 10:02:29;;;;;;;;;37.25;30.25;;;;;4.15;66.04;103084.22;5076020;28;45267;-54
2023/01/23 10:04:57;;;;;;;;;27.50;21.25;;;;;4.16;66.84;103091.22;5076013;28;45230;-56
2023/01/23 10:07:54;;;;;;;;;39.00;22.75;;;;;4.13;66.36;103094.81;5076071;28;45237;-52
2023/01/23 10:10:38;;;;;;;;;46.00;30.75;;;;;4.10;65.93;103089.66;4993304;28;46043;-55
2023/01/23 10:13:10;;;;;;;;;36.50;32.50;;;;;4.09;66.02;103101.09;4993624;28;45495;-50
2023/01/23 10:15:56;;;;;;;;;40.50;29.50;;;;;4.09;66.33;103097.56;4993670;28;45484;-50
2023/01/23 10:18:22;;;;;;;;;36.50;29.00;;;;;4.08;66.86;103099.34;4993816;28;45456;-52
2023/01/23 10:21:07;;;;;;;;;48.25;35.25;;;;;4.07;66.61;103107.31;4993198;28;46063;-50
2023/01/23 10:23:35;;;;;;;;;39.50;32.50;;;;;4.08;67.07;103098.50;4993499;28;45384;-50
2023/01/23 10:26:02;;;;;;;;;48.00;32.25;;;;;4.03;67.16;103084.59;4993532;28;45403;-52
2023/01/23 10:28:38;;;;;;;;;49.25;33.25;;;;;4.08;67.34;103099.34;4993637;28;45402;-55
2023/01/23 10:31:30;;;;;;;;;34.75;23.50;;;;;4.10;67.37;103096.69;4993424;28;45497;-51
2023/01/23 10:34:08;;;;;;;;;36.75;29.00;;;;;4.13;66.80;103097.47;4993451;28;45498;-50
2023/01/23 10:37:05;;;;;;;;;36.75;29.50;;;;;4.17;66.24;103104.34;4993264;28;45434;-54
2023/01/23 10:39:49;;;;;;;;;37.25;30.00;;;;;4.09;66.48;103085.28;4993711;28;45423;-54
2023/01/23 10:42:20;;;;;;;;;44.50;35.00;;;;;4.17;66.60;103090.28;4993290;28;46029;-52
2023/01/23 10:44:46;;;;;;;;;40.00;31.25;;;;;4.08;66.74;103073.00;4993756;28;45419;-46
2023/01/23 10:47:19;;;;;;;;;37.00;27.00;;;;;4.21;66.51;103089.28;5075461;28;45286;-55
2023/01/23 10:49:45;;;;;;;;;40.25;27.75;;;;;4.19;66.45;103080.59;5075827;28;45454;-54
2023/01/23 10:52:36;;;;;;;;;41.00;25.25;;;;;4.20;66.42;103082.31;5075076;28;45408;-49
2023/01/23 10:55:05;;;;;;;;;34.75;29.25;;;;;4.24;66.01;103071.63;5076849;28;45392;-53
2023/01/23 10:57:43;;;;;;;;;35.50;24.00;;;;;4.21;66.71;103069.09;5060479;28;45342;-54
2023/01/23 11:00:20;;;;;;;;;28.25;22.25;;;;;4.28;66.12;103075.03;5079050;28;45379;-47
2023/01/23 11:02:46;;;;;;;;;32.75;28.25;;;;;4.32;65.46;103073.16;5078210;28;45401;-50
2023/01/23 11:05:34;;;;;;;;;41.25;31.25;;;;;4.35;66.68;103075.69;5078691;28;45294;-55
2023/01/23 11:07:59;;;;;;;;;27.00;23.00;;;;;4.33;65.46;103074.88;5078939;28;45314;-43
2023/01/23 11:10:25;;;;;;;;;33.00;24.75;;;;;4.31;65.74;103061.75;5078873;28;45384;-55
2023/01/23 11:12:55;;;;;;;;;33.00;27.50;;;;;4.36;65.79;103053.69;5078627;28;46068;-55
2023/01/23 11:15:22;;;;;;;;;36.50;22.75;;;;;4.42;65.41;103066.66;5078433;28;45406;-47
2023/01/23 11:17:50;;;;;;;;;35.00;25.50;;;;;4.39;65.68;103066.78;5078567;28;45486;-56
2023/01/23 11:20:41;;;;;;;;;29.75;24.25;;;;;4.41;65.66;103065.81;5078793;28;45404;-52
2023/01/23 11:23:07;;;;;;;;;39.00;26.50;;;;;4.39;65.13;103062.38;5078500;28;46265;-49
2023/01/23 11:25:39;;;;;;;;;33.25;24.00;;;;;4.40;65.53;103065.88;5078345;28;45299;-55
2023/01/23 11:28:29;;;;;;;;;28.50;22.75;;;;;4.41;64.89;103067.59;5078574;28;45302;-52